createdAt,value
2019-03-08T00:00:07.463Z,70.34
2019-03-08T00:02:40.841Z,70.79
2019-03-08T00:05:12.628Z,70.27
2019-03-08T00:07:44.328Z,70.27
2019-03-08T00:10:16.180Z,70.58
2019-03-08T00:12:48.010Z,70.34
2019-03-08T00:15:19.873Z,70.20
2019-03-08T00:17:51.711Z,70.36
2019-03-08T00:20:23.495Z,70.87
2019-03-08T00:22:55.198Z,71.28
2019-03-08T00:25:28.040Z,71.51
2019-03-08T00:27:59.907Z,71.76
2019-03-08T00:30:32.025Z,71.98
2019-03-08T00:33:03.818Z,72.16
2019-03-08T00:35:35.521Z,72.37
2019-03-08T00:38:07.543Z,73.01
2019-03-08T00:40:39.581Z,74.72
2019-03-08T00:43:11.272Z,75.57
2019-03-08T00:45:42.978Z,76.25
2019-03-08T00:48:14.760Z,76.31
2019-03-08T00:50:46.576Z,77.20
2019-03-08T00:53:18.314Z,77.32
2019-03-08T00:55:50.099Z,76.63
2019-03-08T00:58:21.795Z,76.45
2019-03-08T01:00:53.553Z,76.37
2019-03-08T01:03:25.242Z,76.60
2019-03-08T01:05:58.244Z,76.03
2019-03-08T01:08:30.122Z,76.21
2019-03-08T01:11:01.832Z,76.06
2019-03-08T01:13:33.546Z,76.05
2019-03-08T01:16:05.407Z,76.67
2019-03-08T01:18:37.175Z,76.20
2019-03-08T01:21:09.048Z,76.33
2019-03-08T01:23:41.092Z,76.38
2019-03-08T01:26:13.132Z,76.25
2019-03-08T01:28:44.901Z,75.98
2019-03-08T01:31:16.696Z,76.44
2019-03-08T01:33:48.468Z,76.79
2019-03-08T01:36:20.357Z,77.84
2019-03-08T01:38:52.134Z,78.74
2019-03-08T01:41:23.943Z,78.25
2019-03-08T01:43:55.632Z,78.90
2019-03-08T01:46:27.355Z,78.44
2019-03-08T01:48:59.095Z,78.40
2019-03-08T01:51:30.810Z,78.38
2019-03-08T01:54:02.765Z,78.64
2019-03-08T01:56:34.474Z,79.15
2019-03-08T01:59:06.316Z,77.95
2019-03-08T02:01:38.175Z,78.46
2019-03-08T02:04:11.477Z,78.14
2019-03-08T02:06:43.254Z,78.00
2019-03-08T02:09:15.355Z,78.15
2019-03-08T02:11:47.069Z,78.33
2019-03-08T02:14:18.786Z,78.69
2019-03-08T02:16:50.489Z,79.27
2019-03-08T02:19:22.199Z,79.52
2019-03-08T02:21:54.160Z,80.02
2019-03-08T02:24:25.886Z,79.71
2019-03-08T02:26:57.602Z,80.35
2019-03-08T02:29:29.308Z,81.61
2019-03-08T02:32:01.093Z,80.52
2019-03-08T02:34:32.788Z,80.34
2019-03-08T02:37:04.578Z,79.49
2019-03-08T02:39:36.715Z,79.66
2019-03-08T02:42:08.435Z,80.13
2019-03-08T02:44:40.211Z,79.31
2019-03-08T02:47:11.925Z,78.69
2019-03-08T02:49:44.664Z,78.83
2019-03-08T02:52:16.528Z,78.63
2019-03-08T02:54:48.231Z,79.31
2019-03-08T02:57:20.121Z,78.46
2019-03-08T02:59:52.141Z,77.98
2019-03-08T03:02:23.882Z,78.16
2019-03-08T03:04:55.577Z,78.29
2019-03-08T03:07:27.403Z,77.75
2019-03-08T03:09:59.191Z,78.44
2019-03-08T03:12:30.913Z,78.22
2019-03-08T03:15:02.605Z,77.27
2019-03-08T03:17:34.335Z,76.81
2019-03-08T03:20:07.396Z,77.34
2019-03-08T03:22:39.363Z,77.62
2019-03-08T03:25:12.215Z,76.69
2019-03-08T03:27:44.003Z,76.81
2019-03-08T03:30:16.138Z,77.14
2019-03-08T03:32:48.908Z,77.00
2019-03-08T03:35:20.861Z,76.39
2019-03-08T03:37:52.748Z,76.17
2019-03-08T03:40:24.582Z,76.51
2019-03-08T03:42:56.414Z,76.03
2019-03-08T03:45:28.174Z,76.01
2019-03-08T03:47:59.891Z,77.31
2019-03-08T03:50:31.595Z,77.95
2019-03-08T03:53:03.306Z,78.19
2019-03-08T03:55:35.078Z,77.94
2019-03-08T03:58:07.780Z,78.38
2019-03-08T04:00:40.169Z,79.34
2019-03-08T04:03:11.957Z,79.90
2019-03-08T04:05:43.702Z,80.53
2019-03-08T04:08:15.433Z,80.70
2019-03-08T04:10:47.199Z,80.44
2019-03-08T04:13:18.986Z,79.89
2019-03-08T04:15:50.762Z,79.22
2019-03-08T04:18:22.468Z,79.94
2019-03-08T04:20:54.161Z,80.04
2019-03-08T04:23:25.881Z,80.15
2019-03-08T04:25:57.581Z,79.66
2019-03-08T04:28:29.279Z,80.47
2019-03-08T04:31:01.107Z,80.34
2019-03-08T04:33:32.887Z,81.74
2019-03-08T04:36:04.658Z,80.18
2019-03-08T04:38:37.575Z,81.64
2019-03-08T04:41:09.282Z,81.50
2019-03-08T04:43:40.984Z,82.42
2019-03-08T04:46:12.674Z,82.41
2019-03-08T04:48:44.549Z,82.72
2019-03-08T04:51:16.486Z,82.80
2019-03-08T04:53:48.195Z,83.88
2019-03-08T04:56:19.880Z,83.42
2019-03-08T04:58:51.582Z,83.97
2019-03-08T05:01:23.350Z,83.55
2019-03-08T05:03:55.071Z,83.82
2019-03-08T05:06:26.936Z,84.20
2019-03-08T05:08:58.734Z,83.93
2019-03-08T05:11:30.503Z,84.38
2019-03-08T05:14:02.771Z,84.85
2019-03-08T05:16:34.471Z,85.03
2019-03-08T05:19:06.282Z,84.40
2019-03-08T05:21:38.225Z,85.64
2019-03-08T05:24:10.458Z,84.76
2019-03-08T05:26:43.213Z,84.95
2019-03-08T05:29:14.911Z,84.48
2019-03-08T05:31:46.845Z,84.60
2019-03-08T05:34:18.557Z,84.35
2019-03-08T05:36:50.337Z,84.49
2019-03-08T05:39:22.298Z,83.93
2019-03-08T05:41:54.308Z,83.95
2019-03-08T05:44:26.262Z,84.71
2019-03-08T05:46:57.977Z,83.82
2019-03-08T05:49:29.775Z,83.67
2019-03-08T05:52:01.450Z,84.50
2019-03-08T05:54:33.139Z,83.79
2019-03-08T05:57:04.840Z,83.60
2019-03-08T05:59:36.805Z,83.39
2019-03-08T06:02:08.863Z,83.25
2019-03-08T06:04:40.559Z,83.52
2019-03-08T06:07:12.504Z,82.87
2019-03-08T06:09:44.199Z,82.53
2019-03-08T06:12:16.703Z,83.08
2019-03-08T06:14:48.721Z,82.08
2019-03-08T06:17:20.741Z,82.37
2019-03-08T06:19:52.455Z,82.82
2019-03-08T06:22:24.160Z,82.03
2019-03-08T06:24:56.056Z,81.97
2019-03-08T06:27:27.762Z,81.39
2019-03-08T06:29:59.511Z,81.98
2019-03-08T06:32:31.203Z,81.32
2019-03-08T06:35:02.927Z,81.20
2019-03-08T06:37:34.677Z,81.21
2019-03-08T06:40:06.773Z,80.27
2019-03-08T06:42:38.473Z,80.50
2019-03-08T06:45:13.447Z,80.54
2019-03-08T06:47:45.539Z,79.30
2019-03-08T06:50:17.395Z,79.36
2019-03-08T06:52:49.167Z,78.71
2019-03-08T06:55:21.029Z,78.94
2019-03-08T06:58:00.574Z,78.75
2019-03-08T07:01:04.532Z,78.44
2019-03-08T07:03:36.225Z,78.28
2019-03-08T07:06:08.191Z,77.21
2019-03-08T07:08:40.123Z,77.04
2019-03-08T07:11:11.850Z,77.33
2019-03-08T07:13:43.790Z,77.55
2019-03-08T07:16:15.580Z,77.46
2019-03-08T07:18:47.553Z,77.75
2019-03-08T07:21:27.440Z,77.24
2019-03-08T07:24:04.680Z,77.25
2019-03-08T07:26:47.878Z,77.88
2019-03-08T07:29:37.517Z,77.23
2019-03-08T07:32:22.381Z,76.94
2019-03-08T07:35:22.266Z,76.36
2019-03-08T07:38:15.963Z,76.45
2019-03-08T07:41:10.594Z,76.63
2019-03-08T07:44:09.977Z,76.61
2019-03-08T07:47:15.537Z,76.40
2019-03-08T07:50:04.859Z,76.87
2019-03-08T07:52:58.268Z,76.35
2019-03-08T07:55:57.544Z,77.04
2019-03-08T07:58:57.953Z,76.25
2019-03-08T08:01:46.458Z,76.15
2019-03-08T08:04:25.938Z,75.94
2019-03-08T08:07:22.525Z,76.38
2019-03-08T08:10:13.298Z,76.28
2019-03-08T08:13:04.027Z,75.17
2019-03-08T08:16:06.909Z,74.86
2019-03-08T08:19:06.703Z,74.18
2019-03-08T08:22:03.450Z,73.96
2019-03-08T08:24:58.108Z,74.15
2019-03-08T08:27:40.023Z,74.33
2019-03-08T08:30:30.647Z,74.01
2019-03-08T08:33:17.961Z,73.96
2019-03-08T08:36:01.602Z,73.84
2019-03-08T08:38:58.668Z,72.47
2019-03-08T08:41:36.258Z,72.30
2019-03-08T08:44:21.387Z,72.50
2019-03-08T08:47:18.228Z,72.38
2019-03-08T08:50:07.155Z,73.20
2019-03-08T08:53:12.911Z,71.55
2019-03-08T08:56:06.418Z,71.30
2019-03-08T08:58:49.498Z,72.23
2019-03-08T09:01:38.588Z,71.63
2019-03-08T09:04:21.496Z,71.68
2019-03-08T09:07:02.887Z,70.84
2019-03-08T09:09:57.549Z,69.94
2019-03-08T09:12:38.875Z,68.91
2019-03-08T09:15:22.317Z,69.35
2019-03-08T09:18:02.605Z,68.64
2019-03-08T09:20:51.941Z,67.78
2019-03-08T09:23:45.444Z,67.93
2019-03-08T09:26:48.465Z,68.39
2019-03-08T09:29:41.202Z,67.71
2019-03-08T09:32:19.937Z,67.51
2019-03-08T09:35:16.360Z,67.02
2019-03-08T09:38:06.962Z,66.00
2019-03-08T09:41:09.633Z,66.46
2019-03-08T09:43:56.509Z,66.81
2019-03-08T09:46:35.578Z,66.08
2019-03-08T09:49:29.203Z,66.13
2019-03-08T09:52:23.087Z,66.16
2019-03-08T09:55:06.484Z,65.23
2019-03-08T09:58:12.337Z,64.62
2019-03-08T10:01:06.310Z,64.90
2019-03-08T10:03:46.836Z,64.77
2019-03-08T10:06:43.623Z,62.28
2019-03-08T10:09:34.242Z,63.38
2019-03-08T10:12:29.313Z,62.77
2019-03-08T10:15:28.876Z,62.47
2019-03-08T10:18:18.273Z,62.25
2019-03-08T10:21:28.105Z,61.41
2019-03-08T10:24:18.804Z,61.31
2019-03-08T10:27:14.491Z,60.78
2019-03-08T10:29:57.214Z,60.54
2019-03-08T10:32:42.097Z,61.46
2019-03-08T10:35:33.138Z,62.28
2019-03-08T10:38:23.828Z,61.72
2019-03-08T10:41:20.393Z,61.65
2019-03-08T10:44:11.260Z,60.89
2019-03-08T10:47:02.275Z,61.35
2019-03-08T10:50:11.942Z,60.21
2019-03-08T10:52:56.344Z,60.51
2019-03-08T10:55:41.017Z,60.62
2019-03-08T10:58:30.414Z,60.11
2019-03-08T11:01:21.043Z,59.68
2019-03-08T11:03:59.770Z,59.92
2019-03-08T11:06:55.105Z,60.04
2019-03-08T11:09:57.853Z,60.14
2019-03-08T11:12:42.006Z,59.39
2019-03-08T11:15:32.937Z,59.49
2019-03-08T11:18:22.323Z,60.09
2019-03-08T11:21:05.673Z,58.27
2019-03-08T11:23:54.923Z,57.23
2019-03-08T11:26:34.773Z,58.19
2019-03-08T11:29:32.294Z,56.75
2019-03-08T11:32:30.593Z,56.00
2019-03-08T11:35:28.058Z,56.48
2019-03-08T11:38:23.362Z,56.12
2019-03-08T11:41:23.139Z,56.41
2019-03-08T11:44:13.573Z,57.47
2019-03-08T11:46:53.753Z,57.74
2019-03-08T11:49:32.618Z,59.23
2019-03-08T11:52:29.152Z,59.76
2019-03-08T11:55:28.884Z,60.45
2019-03-08T11:58:09.747Z,61.26
2019-03-08T12:01:09.239Z,62.08
2019-03-08T12:03:50.631Z,62.47
2019-03-08T12:06:28.695Z,63.19
2019-03-08T12:09:24.058Z,62.64
2019-03-08T12:12:09.317Z,63.22
2019-03-08T12:15:03.242Z,63.37
2019-03-08T12:17:51.761Z,64.33
2019-03-08T12:20:32.874Z,65.23
2019-03-08T12:23:41.954Z,65.81
2019-03-08T12:26:35.778Z,64.51
2019-03-08T12:29:15.456Z,64.67
2019-03-08T12:32:09.312Z,64.52
2019-03-08T12:34:49.773Z,66.00
2019-03-08T12:37:46.464Z,64.71
2019-03-08T12:40:40.194Z,66.28
2019-03-08T12:43:29.764Z,66.46
2019-03-08T12:46:20.892Z,66.07
2019-03-08T12:49:11.785Z,66.48
2019-03-08T12:52:08.468Z,68.81
2019-03-08T12:54:47.725Z,69.77
2019-03-08T12:57:28.026Z,70.34
2019-03-08T13:00:10.229Z,70.24
2019-03-08T13:03:03.386Z,72.29
2019-03-08T13:05:43.978Z,72.62
2019-03-08T13:08:37.843Z,70.56
2019-03-08T13:11:09.780Z,68.63
2019-03-08T13:13:41.591Z,66.77
2019-03-08T13:16:13.429Z,67.88
2019-03-08T13:18:46.111Z,67.60
2019-03-08T13:21:17.880Z,66.05
2019-03-08T13:23:49.599Z,63.54
2019-03-08T13:26:21.381Z,63.95
2019-03-08T13:28:53.102Z,64.14
2019-03-08T13:31:25.243Z,60.99
2019-03-08T13:33:57.210Z,61.34
2019-03-08T13:36:29.171Z,61.52
2019-03-08T13:39:00.989Z,61.42
2019-03-08T13:41:34.531Z,61.70
2019-03-08T13:44:06.503Z,61.99
2019-03-08T13:46:38.267Z,61.96
2019-03-08T13:49:11.288Z,61.14
2019-03-08T13:51:43.242Z,71.85
2019-03-08T13:54:14.945Z,78.88
2019-03-08T13:56:46.887Z,82.88
2019-03-08T13:59:18.584Z,84.83
2019-03-08T14:01:50.353Z,86.33
2019-03-08T14:04:22.064Z,86.54
2019-03-08T14:06:53.796Z,86.73
2019-03-08T14:09:25.507Z,87.17
2019-03-08T14:11:57.377Z,87.62
2019-03-08T14:14:29.393Z,88.62
2019-03-08T14:17:01.317Z,87.61
2019-03-08T14:19:33.021Z,89.14
2019-03-08T14:22:04.991Z,90.04
2019-03-08T14:24:36.707Z,88.34
2019-03-08T14:27:08.626Z,88.59
2019-03-08T14:29:41.031Z,89.37
2019-03-08T14:32:17.227Z,90.04
2019-03-08T14:34:49.612Z,89.47
2019-03-08T14:37:22.716Z,88.79
2019-03-08T14:39:54.421Z,87.76
2019-03-08T14:42:30.939Z,86.58
2019-03-08T14:45:28.611Z,86.50
2019-03-08T14:48:01.143Z,84.51
2019-03-08T14:50:35.601Z,82.98
2019-03-08T14:53:06.343Z,81.89
2019-03-08T14:55:38.370Z,82.08
2019-03-08T14:58:10.247Z,81.16
2019-03-08T15:00:41.947Z,79.52
2019-03-08T15:03:13.720Z,79.49
2019-03-08T15:05:45.779Z,78.53
2019-03-08T15:08:19.011Z,78.33
2019-03-08T15:10:51.428Z,78.57
2019-03-08T15:13:23.976Z,78.69
2019-03-08T15:15:58.021Z,78.92
2019-03-08T15:18:31.218Z,80.26
2019-03-08T15:21:03.134Z,80.40
2019-03-08T15:23:35.152Z,80.51
2019-03-08T15:26:06.955Z,79.92
2019-03-08T15:28:38.722Z,80.34
2019-03-08T15:31:10.953Z,81.45
2019-03-08T15:33:42.655Z,81.04
2019-03-08T15:36:14.370Z,80.79
2019-03-08T15:38:46.312Z,80.52
2019-03-08T15:41:21.464Z,78.40
2019-03-08T15:43:52.705Z,75.08
2019-03-08T15:46:26.676Z,73.33
2019-03-08T15:48:57.945Z,71.95
2019-03-08T15:51:29.724Z,71.48
2019-03-08T15:54:01.508Z,70.82
2019-03-08T15:56:33.362Z,71.63
2019-03-08T15:59:05.207Z,71.12
2019-03-08T16:01:36.903Z,69.42
2019-03-08T16:04:12.075Z,69.55
2019-03-08T16:06:43.807Z,68.59
2019-03-08T16:09:15.603Z,68.42
2019-03-08T16:11:47.370Z,68.14
2019-03-08T16:14:19.146Z,68.63
2019-03-08T16:16:50.846Z,68.09
2019-03-08T16:19:24.809Z,67.13
2019-03-08T16:21:56.032Z,66.98
2019-03-08T16:24:31.134Z,68.55
2019-03-08T16:27:02.461Z,70.03
2019-03-08T16:29:34.409Z,68.76
2019-03-08T16:32:31.345Z,67.57
2019-03-08T16:35:03.103Z,68.45
2019-03-08T16:37:46.357Z,67.41
2019-03-08T16:40:42.910Z,68.94
2019-03-08T16:43:22.786Z,70.91
2019-03-08T16:46:16.127Z,71.20
2019-03-08T16:49:21.185Z,71.42
2019-03-08T16:52:05.771Z,71.46
2019-03-08T16:54:47.018Z,70.50
2019-03-08T16:57:31.872Z,71.43
2019-03-08T17:00:18.707Z,71.82
2019-03-08T17:03:12.188Z,73.03
2019-03-08T17:05:54.807Z,73.28
2019-03-08T17:08:45.440Z,72.96
2019-03-08T17:11:42.518Z,73.71
2019-03-08T17:14:45.587Z,73.83
2019-03-08T17:17:35.466Z,74.42
2019-03-08T17:20:18.622Z,74.37
2019-03-08T17:23:21.111Z,74.59
2019-03-08T17:25:59.324Z,75.44
2019-03-08T17:28:49.045Z,74.95
2019-03-08T17:31:28.168Z,75.57
2019-03-08T17:34:18.788Z,76.67
2019-03-08T17:36:59.283Z,76.92
2019-03-08T17:39:49.888Z,76.85
2019-03-08T17:42:47.178Z,77.50
2019-03-08T17:45:56.072Z,77.57
2019-03-08T17:49:04.776Z,77.56
2019-03-08T17:51:54.175Z,77.53
2019-03-08T17:54:37.199Z,77.55
2019-03-08T17:57:33.880Z,77.82
2019-03-08T18:00:13.980Z,77.69
2019-03-08T18:02:56.238Z,78.56
2019-03-08T18:05:37.782Z,78.76
2019-03-08T18:08:28.203Z,78.16
2019-03-08T18:11:26.875Z,78.34
2019-03-08T18:14:05.688Z,78.50
2019-03-08T18:16:46.351Z,77.63
2019-03-08T18:19:37.010Z,77.86
2019-03-08T18:22:26.377Z,78.64
2019-03-08T18:25:11.029Z,79.29
2019-03-08T18:28:13.724Z,79.54
2019-03-08T18:31:07.182Z,78.99
2019-03-08T18:33:43.868Z,78.97
2019-03-08T18:36:37.955Z,78.95
2019-03-08T18:39:44.132Z,79.18
2019-03-08T18:42:28.048Z,78.97
2019-03-08T18:45:09.670Z,79.47
2019-03-08T18:48:03.428Z,80.10
2019-03-08T18:50:52.600Z,79.82
2019-03-08T18:53:40.111Z,79.42
2019-03-08T18:56:29.498Z,80.45
2019-03-08T18:59:26.304Z,80.62
2019-03-08T19:02:15.453Z,81.11
2019-03-08T19:05:21.057Z,81.25
2019-03-08T19:08:14.932Z,81.38
2019-03-08T19:10:58.724Z,81.86
2019-03-08T19:13:48.087Z,82.22
2019-03-08T19:16:30.350Z,82.61
2019-03-08T19:19:21.183Z,82.69
2019-03-08T19:22:10.201Z,82.40
2019-03-08T19:24:55.152Z,82.16
2019-03-08T19:27:52.477Z,81.76
2019-03-08T19:30:52.023Z,81.57
2019-03-08T19:33:49.928Z,81.85
2019-03-08T19:36:30.784Z,81.74
2019-03-08T19:39:10.382Z,81.76
2019-03-08T19:42:16.357Z,81.86
2019-03-08T19:45:14.062Z,81.39
2019-03-08T19:48:07.088Z,81.15
2019-03-08T19:51:00.653Z,81.31
2019-03-08T19:54:03.904Z,81.20
2019-03-08T19:56:42.536Z,81.74
2019-03-08T19:59:34.856Z,81.57
2019-03-08T20:02:24.402Z,81.93
2019-03-08T20:05:03.193Z,82.16
2019-03-08T20:08:12.908Z,82.64
2019-03-08T20:10:56.389Z,82.73
2019-03-08T20:14:01.949Z,82.67
2019-03-08T20:17:02.014Z,83.07
2019-03-08T20:19:49.900Z,83.37
2019-03-08T20:22:39.147Z,83.62
2019-03-08T20:25:28.012Z,83.93
2019-03-08T20:28:12.328Z,84.12
2019-03-08T20:30:51.759Z,83.82
2019-03-08T20:33:48.787Z,83.73
2019-03-08T20:36:37.873Z,83.54
2019-03-08T20:39:21.900Z,83.49
2019-03-08T20:41:58.498Z,83.31
2019-03-08T20:44:38.101Z,82.95
2019-03-08T20:47:15.135Z,83.04
2019-03-08T20:49:46.941Z,83.25
2019-03-08T20:52:18.960Z,83.14
2019-03-08T20:54:50.756Z,83.57
2019-03-08T20:57:22.586Z,83.29
2019-03-08T20:59:54.446Z,83.08
2019-03-08T21:02:26.333Z,83.67
2019-03-08T21:04:58.366Z,84.20
2019-03-08T21:07:30.084Z,84.14
2019-03-08T21:10:01.854Z,84.65
2019-03-08T21:12:33.809Z,84.31
2019-03-08T21:15:07.866Z,84.52
2019-03-08T21:17:39.754Z,84.63
2019-03-08T21:20:12.589Z,84.62
2019-03-08T21:22:44.539Z,84.08
2019-03-08T21:25:16.822Z,84.33
2019-03-08T21:27:48.694Z,84.37
2019-03-08T21:30:20.823Z,84.44
2019-03-08T21:32:52.579Z,84.60
2019-03-08T21:35:24.373Z,84.16
2019-03-08T21:37:56.147Z,84.16
2019-03-08T21:40:28.053Z,84.22
2019-03-08T21:42:59.837Z,84.42
2019-03-08T21:45:31.652Z,84.40
2019-03-08T21:48:03.587Z,84.21
2019-03-08T21:50:35.551Z,84.36
2019-03-08T21:53:07.498Z,83.87
2019-03-08T21:55:39.237Z,84.03
2019-03-08T21:58:11.739Z,84.00
2019-03-08T22:00:43.601Z,83.81
2019-03-08T22:03:15.400Z,84.02
2019-03-08T22:05:47.154Z,84.18
2019-03-08T22:08:18.978Z,83.57
2019-03-08T22:11:13.904Z,83.68
2019-03-08T22:13:45.632Z,83.95
2019-03-08T22:16:17.362Z,84.40
2019-03-08T22:18:49.327Z,84.26
2019-03-08T22:21:21.200Z,84.14
2019-03-08T22:23:52.900Z,84.22
2019-03-08T22:26:24.797Z,84.09
2019-03-08T22:28:56.767Z,83.89
2019-03-08T22:31:28.737Z,83.55
2019-03-08T22:34:02.067Z,83.54
2019-03-08T22:36:33.823Z,83.59
2019-03-08T22:39:07.480Z,83.97
2019-03-08T22:41:39.663Z,84.01
2019-03-08T22:44:11.374Z,84.07
2019-03-08T22:46:45.705Z,84.03
2019-03-08T22:49:16.765Z,83.82
2019-03-08T22:51:48.483Z,83.87
2019-03-08T22:54:20.265Z,83.31
2019-03-08T22:56:51.981Z,83.04
2019-03-08T22:59:23.692Z,83.30
2019-03-08T23:02:03.197Z,83.14
2019-03-08T23:04:35.058Z,83.31
2019-03-08T23:07:07.240Z,83.18
2019-03-08T23:09:39.218Z,82.98
2019-03-08T23:12:11.080Z,82.58
2019-03-08T23:14:42.788Z,82.56
2019-03-08T23:17:14.578Z,82.41
2019-03-08T23:19:46.328Z,81.45
2019-03-08T23:22:18.041Z,81.25
2019-03-08T23:24:50.017Z,80.35
2019-03-08T23:27:46.600Z,78.97
2019-03-08T23:30:24.710Z,79.29
2019-03-08T23:32:57.157Z,78.32
2019-03-08T23:35:28.852Z,77.65
2019-03-08T23:38:01.718Z,77.37
2019-03-08T23:40:33.473Z,77.21
2019-03-08T23:43:05.348Z,77.35
2019-03-08T23:45:37.067Z,77.03
2019-03-08T23:48:08.780Z,76.65
2019-03-08T23:50:40.583Z,76.73
2019-03-08T23:53:12.563Z,76.48
2019-03-08T23:55:44.529Z,75.96
2019-03-08T23:58:16.235Z,75.64
